ADDS TAF Data INFO
IDs: Format: Raw Decoded Include METARs

Data at: 0317 UTC 20 Oct 2017

Region: TOP
KATL 200142Z 2002/2106 00000KT P6SM SKC
  FM201400 08004KT P6SM SKC


KBOS 192320Z 2000/2106 22012G19KT P6SM SCT250
  FM200600 24009KT P6SM SCT200
  FM201100 30010KT P6SM SKC
  FM201500 31012G20KT P6SM SKC
  FM210000 30006KT P6SM SKC


KBWI 192320Z 2000/2106 VRB04KT P6SM FEW250
  FM200800 28005KT P6SM FEW250
  FM201300 33008KT P6SM FEW250
  FM202300 VRB03KT P6SM FEW250


KCLE 192335Z 2000/2106 28006KT P6SM SCT250
  FM200600 VRB03KT P6SM SKC
  FM201600 18006KT P6SM SKC


KCLT 200241Z 2003/2024 00000KT P6SM SKC
  FM201400 03003KT P6SM SKC


KCVG 192320Z 2000/2106 21003KT P6SM FEW250
  TEMPO 2010/2012 5SM BR
  FM201700 16005KT P6SM FEW250


KDCA 192320Z 2000/2024 20004KT P6SM FEW250
  FM200800 31005KT P6SM FEW250
  FM201300 34008KT P6SM FEW250


KDEN 200255Z 2003/2106 18010KT P6SM FEW110 BKN220
  FM200500 21012KT P6SM FEW120 BKN220
  FM201000 24008KT P6SM BKN220
  FM201500 VRB05KT P6SM SCT220
  FM201900 15008KT P6SM FEW120 SCT220
  FM210100 22009KT P6SM FEW120 SCT220


KDFW 200300Z 2003/2106 14010KT P6SM BKN300
  FM201500 15014KT P6SM BKN025
  FM202000 15015KT P6SM VCSH BKN050


KDTW 200301Z 2003/2106 VRB03KT P6SM SCT250
  FM201400 18008KT P6SM SKC
  FM202200 15005KT P6SM SCT250


KEWR 200240Z 2003/2106 24007KT P6SM SCT250
  FM200900 30007KT P6SM FEW250
  FM201400 31010G17KT P6SM FEW250
  FM202100 30008KT P6SM FEW250
  FM210100 31005KT P6SM FEW250


KFLL 200307Z 2003/2024 06010KT P6SM VCSH SCT025 BKN040
  FM201500 07012KT P6SM SCT250
  FM201700 07015G20KT P6SM BKN050


KIAD 192320Z 2000/2106 VRB04KT P6SM FEW250
  FM200700 31005KT P6SM FEW250
  FM201300 34008KT P6SM FEW250
  FM202300 VRB03KT P6SM FEW250


KIAH 200300Z 2003/2106 10006KT P6SM FEW050 BKN150 BKN250
  FM200700 09006KT P6SM SCT025 SCT070 BKN100
  FM200900 09005KT P6SM BKN025 BKN090
  FM201500 11008KT P6SM VCSH BKN025 BKN090
  FM201900 12011KT P6SM VCTS BKN035CB OVC060
  PROB30 2019/2101 -TSRA OVC025CB
  FM210100 12008KT P6SM SCT030


KJFK 200240Z 2003/2106 24009KT P6SM SCT250
  FM200900 30009KT P6SM FEW250
  FM201400 31011G18KT P6SM FEW250
  FM202200 29009KT P6SM FEW250
  FM210100 31005KT P6SM FEW250


KLAS 200251Z 2003/2106 20012KT P6SM SKC
  FM200500 20014G24KT P6SM SKC
  FM201300 20020G30KT P6SM SKC
  FM201900 25012G20KT P6SM SCT250
  FM210100 34010G18KT P6SM SCT250


KLAX 192343Z 2000/2106 27012KT P6SM SCT013 SCT022
  FM200500 27015KT P6SM OVC015
  FM201000 28010KT P6SM OVC020
  FM201800 27018G24KT P6SM BKN025
  FM202000 27016G23KT P6SM OVC100
  FM202300 27020G30KT P6SM SCT250
  FM210200 28015G20KT P6SM SCT250
  FM210500 33008KT P6SM SKC


KLGA 200240Z 2003/2024 25008KT P6SM SCT250
  FM200900 30008KT P6SM FEW250
  FM201400 31010G17KT P6SM FEW250
  FM202200 31008KT P6SM FEW250


KMCO 200251Z 2003/2024 02009KT P6SM SCT025
  FM201400 05013G20KT P6SM SCT025 SCT040


KMDW 200252Z 2003/2024 17005KT P6SM SCT250
  FM201600 19011G17KT P6SM FEW250


KMEM 200301Z 2003/2024 00000KT P6SM SCT250
  FM201600 16006KT P6SM BKN250
  FM201900 16007KT P6SM FEW250


KMIA 200307Z 2003/2024 05006KT P6SM VCSH SCT025 BKN070 BKN200
  FM201500 08012KT P6SM BKN100
  FM201700 08015G20KT P6SM BKN050


KMSP 200300Z 2003/2106 16007KT P6SM SKC
  FM201500 17012KT P6SM SKC
  FM201700 16015G25KT P6SM FEW250
  FM210000 16014KT P6SM BKN200


KORD 200252Z 2003/2106 17005KT P6SM SCT250
  FM201600 19011G17KT P6SM FEW250
  FM210000 18008KT P6SM SCT250


KPDX 200255Z 2003/2024 20006KT P6SM -SHRA SCT020 OVC060
  FM201800 21011KT P6SM -RA SCT020 OVC050


KPHL 192320Z 2000/2106 22005KT P6SM SKC
  FM200600 25005KT P6SM SKC
  FM201300 33007KT P6SM SKC
  FM210000 30005KT P6SM SKC


KPHX 200239Z 2003/2106 25006KT P6SM FEW150 SCT250
  FM200800 16008KT P6SM SCT250
  FM201600 22010KT P6SM FEW250
  FM202100 25015KT P6SM FEW250


KPIT 192320Z 2000/2106 24005KT P6SM SCT250

KSAN 200241Z 2003/2106 29004KT P6SM FEW018 FEW027 BKN230
  FM200400 24006KT P6SM BKN023
  FM200900 28011KT P6SM VCSH BKN025
  FM201900 27012G18KT P6SM BKN030
  FM210300 28007KT P6SM BKN025


KSEA 200305Z 2003/2106 15009KT P6SM -RA SCT015 BKN040 BKN050
  TEMPO 2003/2006 5SM -SHRA BR BKN015 OVC040
  FM200600 18009KT P6SM VCSH SCT020 OVC050
  FM201000 19008KT P6SM -SHRA SCT010 OVC020
  FM202000 21013G20KT P6SM -SHRA SCT030 BKN050 OVC100
  FM210000 22013G20KT P6SM SCT035 BKN080 OVC120


KSFO 200312Z 2003/2106 19011KT P6SM VCSH FEW010 SCT050 OVC070
  TEMPO 2003/2005 4SM -SHRA BR FEW010 BKN025 OVC035
  FM200500 23013KT 6SM -SHRA BR FEW010 BKN025 OVC035
  FM200900 27015G22KT 6SM -SHRA BR BKN025 BKN040
  FM201100 27010KT P6SM BKN030 BKN050
  FM201800 28012KT P6SM FEW030 SCT050
  FM202200 28016G24KT P6SM FEW035 SCT050
  FM210300 27013KT P6SM SKC


KSLC 200244Z 2003/2106 17008KT P6SM BKN150
  FM200500 16014G24KT P6SM SCT150
  FM201300 18019G30KT P6SM FEW060 BKN100
  FM201700 29022G35KT P6SM SCT040 BKN070
  FM202000 33014KT P6SM -RA SCT025 OVC040
  FM210100 34011KT P6SM SCT035 BKN070


KSTL 200246Z 2003/2106 15005KT P6SM FEW250
  FM201900 16010KT P6SM FEW250


KTPA 200300Z 2003/2024 04008KT P6SM FEW040
  FM200500 04006KT P6SM SCT015 SCT250
  FM201400 05010KT P6SM SCT025 SCT250
  FM202000 07008KT P6SM SCT040 BKN100